PWSweather.com
Personal Weather Stations
Station Observations
KMIEASTT1
Tawas Bay, East Tawas, MI 48730

Tawas BayEast Tawas, MI 48730

Lat: 44.28, Lon: -83.48

Elevation: 600

Station Type: Davis VantagePro

http://www.tawasbayweather.com

Latest ConditionsUpdated 6:30:08 AM EST Tuesday, Dec 10, 2019
Currently Today's Max Today's Min Today's Average
Temperature 25.1°F-3.8°C 38.4°F3.6°C 25.1°F-3.8°C 29.4°F-1.4°C
Dew Point 18.9°F-7.3°C 34.6°F1.4°C 18.0°F-7.8°C 24.5°F-4.2°C
Winds 8.0 mph NW12.9 kmh NW 14.0 mph -22.5 kmh - - 7.1 mph 11.4 kmh
Wind Gusts 10.0 mph16.1 kmh 23.0 mph37.0 kmh - -
Humidity 77% 89% 74% 82%
Pressure 29.81 in1009.5 mb 29.81 in1009.5 mb 29.47 in998.0 mb -
Hour Temp Dew Point Humidity Winds Wind Gusts Pressure Precip Precip Rate Daily Precip Total
06:30 AM 25.1°F-3.8°C 18.9°F-7.3°C 77% 8.0 mph NW12.9 kmh NW 10.0 mph16.1 kmh 29.81 in1009.5 mb 0.00 in0.0 mm 0.00 in0.0 mm 0.00 in0.0 mm
06:15 AM 25.1°F-3.8°C 18.0°F-7.8°C 74% 9.0 mph NW14.5 kmh NW 14.0 mph22.5 kmh 29.79 in1008.8 mb 0.00 in0.0 mm 0.00 in0.0 mm 0.00 in0.0 mm
06:00 AM 25.3°F-3.7°C 18.8°F-7.3°C 76% 9.0 mph NW14.5 kmh NW 14.0 mph22.5 kmh 29.77 in1008.1 mb 0.00 in0.0 mm 0.00 in0.0 mm 0.00 in0.0 mm
05:45 AM 25.6°F-3.6°C 20.9°F-6.2°C 82% 9.0 mph NW14.5 kmh NW 15.0 mph24.1 kmh 29.77 in1008.1 mb 0.00 in0.0 mm 0.00 in0.0 mm 0.00 in0.0 mm
05:30 AM 25.8°F-3.4°C 21.9°F-5.6°C 85% 4.0 mph SSE6.4 kmh SSE 15.0 mph24.1 kmh 29.76 in1007.8 mb 0.00 in0.0 mm 0.00 in0.0 mm 0.00 in0.0 mm
05:15 AM 26.0°F-3.3°C 23.2°F-4.9°C 89% 8.0 mph NW12.9 kmh NW 13.0 mph20.9 kmh 29.76 in1007.8 mb 0.00 in0.0 mm 0.00 in0.0 mm 0.00 in0.0 mm
05:00 AM 26.2°F-3.2°C 23.1°F-4.9°C 88% 4.0 mph NW6.4 kmh NW 10.0 mph16.1 kmh 29.76 in1007.8 mb 0.00 in0.0 mm 0.00 in0.0 mm 0.00 in0.0 mm
04:45 AM 27.0°F-2.8°C 22.3°F-5.4°C 82% 5.0 mph NNW8.0 kmh NNW 16.0 mph25.7 kmh 29.75 in1007.5 mb 0.00 in0.0 mm 0.00 in0.0 mm 0.00 in0.0 mm
04:30 AM 27.5°F-2.5°C 21.6°F-5.8°C 78% 4.0 mph NNW6.4 kmh NNW 16.0 mph25.7 kmh 29.74 in1007.1 mb 0.00 in0.0 mm 0.00 in0.0 mm 0.00 in0.0 mm
04:15 AM 27.7°F-2.4°C 21.8°F-5.7°C 78% 8.0 mph NW12.9 kmh NW 18.0 mph29.0 kmh 29.73 in1006.8 mb 0.00 in0.0 mm 0.00 in0.0 mm 0.00 in0.0 mm
04:00 AM 28.2°F-2.1°C 22.8°F-5.1°C 80% 5.0 mph N8.0 kmh N 11.0 mph17.7 kmh 29.71 in1006.1 mb 0.00 in0.0 mm 0.00 in0.0 mm 0.00 in0.0 mm
03:45 AM 28.6°F-1.9°C 23.5°F-4.7°C 81% 3.0 mph NW4.8 kmh NW 9.0 mph14.5 kmh 29.70 in1005.8 mb 0.00 in0.0 mm 0.00 in0.0 mm 0.00 in0.0 mm
03:30 AM 28.6°F-1.9°C 23.8°F-4.6°C 82% 8.0 mph WNW12.9 kmh WNW 13.0 mph20.9 kmh 29.68 in1005.1 mb 0.00 in0.0 mm 0.00 in0.0 mm 0.00 in0.0 mm
03:15 AM 28.9°F-1.7°C 24.1°F-4.4°C 82% 8.0 mph NW12.9 kmh NW 12.0 mph19.3 kmh 29.67 in1004.7 mb 0.00 in0.0 mm 0.00 in0.0 mm 0.00 in0.0 mm
03:00 AM 29.2°F-1.6°C 24.1°F-4.4°C 81% 4.0 mph N6.4 kmh N 12.0 mph19.3 kmh 29.66 in1004.4 mb 0.00 in0.0 mm 0.00 in0.0 mm 0.00 in0.0 mm
02:45 AM 29.4°F-1.4°C 24.3°F-4.3°C 81% 5.0 mph N8.0 kmh N 11.0 mph17.7 kmh 29.65 in1004.1 mb 0.00 in0.0 mm 0.00 in0.0 mm 0.00 in0.0 mm
02:30 AM 29.5°F-1.4°C 24.7°F-4.1°C 82% 2.0 mph NNW3.2 kmh NNW 5.0 mph8.0 kmh 29.65 in1004.1 mb 0.00 in0.0 mm 0.00 in0.0 mm 0.00 in0.0 mm
02:15 AM 29.9°F-1.2°C 24.8°F-4.0°C 81% 6.0 mph NW9.7 kmh NW 15.0 mph24.1 kmh 29.65 in1004.1 mb 0.00 in0.0 mm 0.00 in0.0 mm 0.00 in0.0 mm
02:00 AM 30.2°F-1.0°C 25.4°F-3.7°C 82% 10.0 mph NW16.1 kmh NW 16.0 mph25.7 kmh 29.63 in1003.4 mb 0.00 in0.0 mm 0.00 in0.0 mm 0.00 in0.0 mm
01:45 AM 30.7°F-0.7°C 25.3°F-3.7°C 80% 8.0 mph NW12.9 kmh NW 19.0 mph30.6 kmh 29.61 in1002.7 mb 0.00 in0.0 mm 0.00 in0.0 mm 0.00 in0.0 mm
01:30 AM 31.3°F-0.4°C 26.5°F-3.1°C 82% 9.0 mph WNW14.5 kmh WNW 21.0 mph33.8 kmh 29.60 in1002.4 mb 0.00 in0.0 mm 0.00 in0.0 mm 0.00 in0.0 mm
01:15 AM 31.9°F-0.1°C 27.9°F-2.3°C 85% 4.0 mph N6.4 kmh N 18.0 mph29.0 kmh 29.57 in1001.4 mb 0.00 in0.0 mm 0.00 in0.0 mm 0.00 in0.0 mm
01:00 AM 32.6°F0.3°C 27.7°F-2.4°C 82% 12.0 mph NW19.3 kmh NW 18.0 mph29.0 kmh 29.57 in1001.4 mb 0.00 in0.0 mm 0.00 in0.0 mm 0.00 in0.0 mm
12:45 AM 33.6°F0.9°C 28.7°F-1.8°C 82% 14.0 mph NW22.5 kmh NW 23.0 mph37.0 kmh 29.54 in1000.3 mb 0.00 in0.0 mm 0.00 in0.0 mm 0.00 in0.0 mm
12:30 AM 34.7°F1.5°C 30.4°F-0.9°C 84% 6.0 mph NW9.7 kmh NW 18.0 mph29.0 kmh 29.52 in999.7 mb 0.00 in0.0 mm 0.00 in0.0 mm 0.00 in0.0 mm
12:15 AM 36.7°F2.6°C 32.9°F0.5°C 86% 12.0 mph N19.3 kmh N 15.0 mph24.1 kmh 29.50 in999.0 mb 0.00 in0.0 mm 0.00 in0.0 mm 0.00 in0.0 mm
12:00 AM 38.4°F3.6°C 34.6°F1.4°C 86% 9.0 mph NW14.5 kmh NW 18.0 mph29.0 kmh 29.47 in998.0 mb 0.00 in0.0 mm 0.00 in0.0 mm 0.00 in0.0 mm